Time;durP1;ratioP1;P1;durP2;ratioP2;P2;SDS_P1;SDS_P2;PMS_P1;PMS_P2;Temp;Humidity;BMP_temperature;BMP_pressure;BME280_temperature;BME280_humidity;BME280_pressure;Samples;Min_cycle;Max_cycle;Signal;HPM_P1;HPM_P2
2021/12/06 00:01:39;;;;;;;24.63;19.17;;;3.60;99.90;;;;;;5053298;28;20406;-55
2021/12/06 00:04:15;;;;;;;28.33;21.58;;;3.60;99.90;;;;;;5032865;28;20675;-55
2021/12/06 00:06:44;;;;;;;27.25;20.75;;;3.60;99.90;;;;;;5032016;28;20406;-52
2021/12/06 00:09:14;;;;;;;24.17;19.55;;;3.60;99.90;;;;;;5035205;28;20394;-56
2021/12/06 00:11:39;;;;;;;25.03;19.50;;;3.50;99.90;;;;;;5035764;28;20480;-53
2021/12/06 00:14:06;;;;;;;24.53;19.17;;;3.60;99.90;;;;;;5036737;28;20452;-57
2021/12/06 00:16:32;;;;;;;24.13;18.83;;;3.60;99.90;;;;;;5035403;28;20387;-55
2021/12/06 00:18:59;;;;;;;25.90;19.75;;;3.60;99.90;;;;;;5034412;28;20792;-54
2021/12/06 00:21:25;;;;;;;24.80;20.42;;;3.60;99.90;;;;;;5033676;28;20710;-56
2021/12/06 00:23:51;;;;;;;26.75;20.58;;;3.60;99.90;;;;;;5033380;28;20398;-57
2021/12/06 00:26:18;;;;;;;23.77;19.73;;;3.60;99.90;;;;;;5033319;28;20383;-54
2021/12/06 00:28:46;;;;;;;25.13;19.92;;;3.60;99.90;;;;;;5034167;28;20390;-56
2021/12/06 00:31:14;;;;;;;23.45;19.38;;;3.60;99.90;;;;;;5035425;28;20391;-55
2021/12/06 00:33:41;;;;;;;26.05;20.83;;;3.60;99.90;;;;;;5051156;28;20689;-58
2021/12/06 00:36:15;;;;;;;24.48;19.55;;;3.60;99.90;;;;;;5055990;28;20854;-55
2021/12/06 00:38:44;;;;;;;23.95;18.80;;;3.60;99.90;;;;;;5056052;28;20400;-56
2021/12/06 00:41:10;;;;;;;23.42;18.63;;;3.60;99.90;;;;;;5057158;28;20405;-57
2021/12/06 00:43:36;;;;;;;26.55;20.17;;;3.60;99.90;;;;;;5056071;28;20512;-58
2021/12/06 00:46:01;;;;;;;24.52;19.75;;;3.60;99.90;;;;;;5055481;28;20896;-54
2021/12/06 00:48:27;;;;;;;24.63;19.58;;;3.60;99.90;;;;;;5057027;28;20397;-57
2021/12/06 00:50:53;;;;;;;26.55;20.05;;;3.60;99.90;;;;;;5054770;28;20496;-58
2021/12/06 00:53:19;;;;;;;25.85;19.13;;;3.60;99.90;;;;;;5056085;28;20385;-56
2021/12/06 00:55:44;;;;;;;24.13;19.75;;;3.60;99.90;;;;;;5054717;28;20466;-58
2021/12/06 00:58:10;;;;;;;23.05;18.65;;;3.60;99.90;;;;;;5053728;28;20381;-56
2021/12/06 01:00:46;;;;;;;23.10;18.55;;;3.60;99.90;;;;;;5052010;28;20393;-58
2021/12/06 01:03:18;;;;;;;23.83;19.35;;;3.60;99.90;;;;;;5055578;28;20393;-58
2021/12/06 01:05:44;;;;;;;24.67;19.57;;;3.60;99.90;;;;;;5055362;28;20673;-58
2021/12/06 01:08:09;;;;;;;25.10;19.58;;;3.60;99.90;;;;;;5054958;28;20721;-58
2021/12/06 01:10:37;;;;;;;24.45;19.08;;;3.60;99.90;;;;;;5054099;28;20971;-57
2021/12/06 01:13:04;;;;;;;24.58;19.60;;;3.60;99.90;;;;;;5056845;28;20471;-57
2021/12/06 01:15:30;;;;;;;25.15;19.92;;;3.60;99.90;;;;;;5056440;28;20479;-56
2021/12/06 01:17:59;;;;;;;24.55;19.70;;;3.60;99.90;;;;;;5056881;28;20392;-58
2021/12/06 01:20:28;;;;;;;27.00;20.70;;;3.60;99.90;;;;;;5056208;28;20498;-58
2021/12/06 01:23:00;;;;;;;25.08;19.77;;;3.60;99.90;;;;;;5055634;28;20381;-58
2021/12/06 01:25:34;;;;;;;25.60;18.83;;;3.60;99.90;;;;;;5054659;28;20386;-58
2021/12/06 01:28:29;;;;;;;24.77;20.17;;;3.60;99.90;;;;;;5055290;28;20391;-59
2021/12/06 01:41:25;;;;;;;24.38;19.30;;;3.50;99.90;;;;;;5056835;28;20455;-56
2021/12/06 01:44:11;;;;;;;26.52;20.23;;;3.40;99.90;;;;;;5056730;28;20794;-57
2021/12/06 01:46:41;;;;;;;23.00;18.00;;;3.40;99.90;;;;;;5055342;28;20765;-58
2021/12/06 01:49:08;;;;;;;22.90;18.93;;;3.50;99.90;;;;;;5056237;28;20399;-58
2021/12/06 01:51:34;;;;;;;23.48;18.65;;;3.50;99.90;;;;;;5056141;28;20674;-54
2021/12/06 01:54:01;;;;;;;23.60;19.30;;;3.50;99.90;;;;;;5056010;28;20382;-57
2021/12/06 01:56:26;;;;;;;23.92;19.10;;;3.60;99.90;;;;;;5054942;28;20381;-57
2021/12/06 01:58:53;;;;;;;27.20;20.47;;;3.50;99.90;;;;;;5054951;28;20385;-58
2021/12/06 02:01:19;;;;;;;24.23;19.48;;;3.50;99.90;;;;;;5055430;28;20398;-58
2021/12/06 02:03:45;;;;;;;26.52;20.42;;;3.40;99.90;;;;;;5037927;28;20390;-57
2021/12/06 02:06:11;;;;;;;22.95;19.25;;;3.40;99.90;;;;;;5032793;28;20415;-57
2021/12/06 02:08:37;;;;;;;25.77;20.13;;;3.40;99.90;;;;;;5031697;28;20387;-57
2021/12/06 02:11:03;;;;;;;26.58;20.23;;;3.40;99.90;;;;;;5031015;28;20452;-58
2021/12/06 02:13:37;;;;;;;25.38;20.20;;;3.40;99.90;;;;;;5032904;28;20514;-58
2021/12/06 02:16:04;;;;;;;26.38;20.70;;;3.40;99.90;;;;;;5033220;28;20501;-56
2021/12/06 02:21:26;;;;;;;23.98;19.75;;;3.40;99.90;;;;;;5034133;28;20773;-58
2021/12/06 02:23:53;;;;;;;24.17;19.33;;;3.40;99.90;;;;;;5033312;28;20422;-56
2021/12/06 02:26:21;;;;;;;24.17;19.23;;;3.40;99.90;;;;;;5033404;28;20619;-58
2021/12/06 02:28:47;;;;;;;23.33;19.33;;;3.40;99.90;;;;;;5032849;28;20399;-58
2021/12/06 02:31:13;;;;;;;25.08;19.58;;;3.40;99.90;;;;;;5033306;28;20395;-58
2021/12/06 02:33:39;;;;;;;25.50;19.63;;;3.40;99.90;;;;;;5018103;28;20757;-58
2021/12/06 02:36:06;;;;;;;24.27;19.85;;;3.40;99.90;;;;;;5033598;28;20671;-58
2021/12/06 02:38:32;;;;;;;25.67;20.67;;;3.40;99.90;;;;;;5034294;28;20398;-57
2021/12/06 02:40:59;;;;;;;26.13;20.40;;;3.30;99.90;;;;;;5034587;28;20422;-58
2021/12/06 02:43:26;;;;;;;26.63;19.85;;;3.30;99.90;;;;;;5034878;28;20390;-57
2021/12/06 02:45:53;;;;;;;25.60;20.52;;;3.30;99.90;;;;;;5034558;28;20779;-57
2021/12/06 02:48:18;;;;;;;26.25;21.10;;;3.20;99.90;;;;;;5034134;28;20804;-58
2021/12/06 02:50:50;;;;;;;26.17;20.70;;;3.20;99.90;;;;;;5034145;28;20485;-56
2021/12/06 02:53:25;;;;;;;27.27;21.50;;;3.20;99.90;;;;;;5034473;28;20437;-58
2021/12/06 02:55:53;;;;;;;23.88;19.80;;;3.10;99.90;;;;;;5035282;28;20406;-58
2021/12/06 03:01:25;;;;;;;26.60;21.35;;;3.10;99.90;;;;;;5036243;28;20509;-57
2021/12/06 03:03:52;;;;;;;25.25;19.98;;;3.20;99.90;;;;;;5035033;28;20734;-58
2021/12/06 03:06:17;;;;;;;25.50;20.33;;;3.20;99.90;;;;;;5034127;28;20383;-56
2021/12/06 03:08:49;;;;;;;25.60;20.50;;;3.10;99.90;;;;;;5032083;28;20390;-56
2021/12/06 03:11:26;;;;;;;25.23;20.40;;;3.10;99.90;;;;;;5034763;28;20390;-58
2021/12/06 03:13:54;;;;;;;26.55;20.40;;;3.10;99.90;;;;;;5018748;28;20879;-58
2021/12/06 03:16:20;;;;;;;24.00;19.45;;;3.10;99.90;;;;;;5016782;28;20737;-57
2021/12/06 03:18:52;;;;;;;26.13;20.73;;;3.00;99.90;;;;;;5033150;28;20406;-56
2021/12/06 03:21:20;;;;;;;25.27;20.02;;;3.00;99.90;;;;;;5034140;28;20469;-56
2021/12/06 03:23:46;;;;;;;24.42;19.20;;;3.00;99.90;;;;;;5033440;28;20391;-52
2021/12/06 03:26:13;;;;;;;25.45;19.95;;;3.00;99.90;;;;;;5034389;28;20393;-58
2021/12/06 03:28:42;;;;;;;25.47;20.20;;;3.00;99.90;;;;;;5034453;28;20754;-56
2021/12/06 03:31:08;;;;;;;25.17;19.77;;;2.90;99.90;;;;;;5017061;28;20803;-58
2021/12/06 03:33:35;;;;;;;23.95;19.38;;;2.90;99.90;;;;;;5033619;28;20398;-58
2021/12/06 03:36:04;;;;;;;24.13;19.40;;;2.90;99.90;;;;;;5033080;28;20829;-58
2021/12/06 03:38:30;;;;;;;23.13;19.08;;;2.90;99.90;;;;;;5033142;28;20668;-58
2021/12/06 03:40:57;;;;;;;23.67;19.33;;;2.90;99.90;;;;;;5033903;28;20843;-58
2021/12/06 03:43:24;;;;;;;24.13;18.98;;;2.90;99.90;;;;;;5038439;28;20379;-58
2021/12/06 03:45:52;;;;;;;21.67;18.20;;;2.80;99.90;;;;;;5035992;28;20452;-58
2021/12/06 03:48:19;;;;;;;25.55;20.05;;;2.80;99.90;;;;;;5034710;28;20399;-56
2021/12/06 03:50:46;;;;;;;25.10;20.08;;;2.80;99.90;;;;;;5034518;28;20395;-59
2021/12/06 03:53:13;;;;;;;25.67;20.48;;;2.80;99.90;;;;;;5032776;28;20826;-59
2021/12/06 03:55:39;;;;;;;24.08;19.05;;;2.80;99.90;;;;;;5016396;28;20434;-58
2021/12/06 03:58:05;;;;;;;25.33;20.37;;;2.90;99.90;;;;;;5033532;28;20430;-59
2021/12/06 04:00:32;;;;;;;23.17;19.83;;;2.80;99.90;;;;;;5033783;28;20417;-57
2021/12/06 04:02:58;;;;;;;23.25;19.02;;;2.80;99.90;;;;;;5033767;28;20679;-59
2021/12/06 04:05:25;;;;;;;24.30;19.73;;;2.90;99.90;;;;;;5034514;28;20383;-59
2021/12/06 04:07:53;;;;;;;22.88;18.80;;;2.90;99.90;;;;;;5034041;28;20387;-59
2021/12/06 04:10:19;;;;;;;24.77;19.30;;;2.90;99.90;;;;;;5035996;28;20391;-59
2021/12/06 04:12:44;;;;;;;24.50;19.45;;;2.90;99.90;;;;;;5036697;28;20447;-59
2021/12/06 04:15:12;;;;;;;24.17;19.00;;;2.90;99.90;;;;;;5035547;28;20472;-59
2021/12/06 04:17:39;;;;;;;24.90;19.20;;;2.90;99.90;;;;;;5035184;28;20434;-59
2021/12/06 04:20:09;;;;;;;23.08;18.85;;;2.90;99.90;;;;;;5036722;28;20416;-58
2021/12/06 04:22:35;;;;;;;23.52;18.73;;;2.90;99.90;;;;;;5036134;28;20411;-59
2021/12/06 04:25:02;;;;;;;24.10;19.05;;;2.90;99.90;;;;;;5036424;28;20410;-59
2021/12/06 04:27:29;;;;;;;23.20;18.50;;;2.90;99.90;;;;;;5035897;28;20481;-58
2021/12/06 04:29:55;;;;;;;25.35;19.35;;;2.90;99.90;;;;;;5035816;28;20429;-58
2021/12/06 04:32:22;;;;;;;24.38;19.70;;;2.90;99.90;;;;;;5037164;28;20490;-58
2021/12/06 04:34:48;;;;;;;23.43;18.73;;;2.90;99.90;;;;;;5036107;28;20464;-59
2021/12/06 04:37:14;;;;;;;24.93;19.43;;;2.90;99.90;;;;;;5034279;28;20391;-58
2021/12/06 04:39:40;;;;;;;23.10;19.23;;;2.80;99.90;;;;;;5036046;28;20679;-59
2021/12/06 04:42:07;;;;;;;21.35;17.15;;;2.80;99.90;;;;;;5037900;28;20671;-57
2021/12/06 04:44:33;;;;;;;22.90;19.13;;;2.80;99.90;;;;;;5035234;28;20394;-58
2021/12/06 04:46:59;;;;;;;22.85;19.02;;;2.80;99.90;;;;;;5035649;28;20391;-59
2021/12/06 04:49:28;;;;;;;22.52;17.98;;;2.80;99.90;;;;;;5034038;28;20492;-58
2021/12/06 04:51:57;;;;;;;22.27;17.00;;;2.80;99.90;;;;;;5034447;28;20795;-58
2021/12/06 04:54:28;;;;;;;21.90;17.40;;;2.80;99.90;;;;;;5036677;28;20473;-59
2021/12/06 04:57:02;;;;;;;20.73;16.63;;;2.80;99.90;;;;;;5034171;28;20399;-54
2021/12/06 04:59:38;;;;;;;20.90;16.63;;;2.80;99.90;;;;;;5032867;28;20678;-59
2021/12/06 05:02:08;;;;;;;19.58;15.23;;;2.90;99.90;;;;;;5034226;28;20402;-59
2021/12/06 05:04:37;;;;;;;18.08;15.07;;;2.90;99.90;;;;;;5033216;28;20807;-56
2021/12/06 05:07:12;;;;;;;16.85;14.15;;;2.90;99.90;;;;;;5032146;28;20513;-59
2021/12/06 05:09:40;;;;;;;16.77;13.10;;;2.90;99.90;;;;;;5031598;28;20809;-57
2021/12/06 05:12:09;;;;;;;17.45;14.13;;;2.90;99.90;;;;;;5033482;28;20476;-57
2021/12/06 05:14:35;;;;;;;17.75;14.05;;;3.00;99.90;;;;;;5035004;28;20405;-58
2021/12/06 05:17:01;;;;;;;16.52;13.07;;;3.00;99.90;;;;;;5033257;28;20783;-59
2021/12/06 05:19:27;;;;;;;15.05;13.00;;;3.10;99.90;;;;;;5033405;28;20423;-59
2021/12/06 05:21:53;;;;;;;17.10;14.00;;;3.00;99.90;;;;;;5034800;28;20942;-59
2021/12/06 05:24:19;;;;;;;14.95;13.35;;;3.00;99.90;;;;;;5034540;28;20398;-59
2021/12/06 05:26:47;;;;;;;16.13;12.93;;;3.00;99.90;;;;;;5034130;28;20453;-58
2021/12/06 05:29:20;;;;;;;16.43;13.67;;;3.00;99.90;;;;;;5034429;28;20791;-57
2021/12/06 05:31:54;;;;;;;15.90;13.23;;;3.00;99.90;;;;;;5034049;28;20395;-59
2021/12/06 05:34:31;;;;;;;15.48;12.68;;;3.00;99.90;;;;;;5034397;28;20387;-59
2021/12/06 05:36:59;;;;;;;15.60;13.02;;;3.10;99.90;;;;;;5034117;28;20678;-59
2021/12/06 05:39:30;;;;;;;15.38;12.63;;;3.10;99.90;;;;;;5032976;28;20395;-59
2021/12/06 05:42:03;;;;;;;16.05;13.18;;;3.00;99.90;;;;;;5034113;28;20387;-58
2021/12/06 05:44:31;;;;;;;17.03;12.90;;;3.00;99.90;;;;;;5033778;28;20779;-59
2021/12/06 05:46:57;;;;;;;14.40;12.35;;;3.00;99.90;;;;;;5033427;28;20726;-57
2021/12/06 05:49:23;;;;;;;15.90;12.20;;;3.00;99.90;;;;;;5032387;28;20383;-59
2021/12/06 05:51:50;;;;;;;12.52;11.05;;;3.00;99.90;;;;;;5031177;28;20825;-59
2021/12/06 05:54:17;;;;;;;13.68;11.93;;;3.00;99.90;;;;;;5030074;28;20465;-59
2021/12/06 05:56:44;;;;;;;15.15;12.45;;;3.00;99.90;;;;;;5029355;28;20391;-59
2021/12/06 05:59:10;;;;;;;15.52;12.40;;;3.00;99.90;;;;;;5028368;28;20382;-59
2021/12/06 06:01:36;;;;;;;13.52;11.95;;;3.00;99.90;;;;;;5030271;28;20825;-58
2021/12/06 06:04:01;;;;;;;14.67;12.70;;;3.00;99.90;;;;;;5029233;28;20411;-59
2021/12/06 06:06:35;;;;;;;13.87;11.90;;;3.00;99.90;;;;;;5028554;28;20922;-59
2021/12/06 06:09:01;;;;;;;15.13;12.65;;;3.00;99.90;;;;;;5028402;28;20686;-57
2021/12/06 06:11:29;;;;;;;14.30;12.13;;;3.00;99.90;;;;;;5027227;28;20424;-59
2021/12/06 06:13:55;;;;;;;15.07;12.18;;;3.00;99.90;;;;;;5061042;28;20418;-57
2021/12/06 06:16:24;;;;;;;14.07;12.05;;;3.00;99.90;;;;;;5027391;28;20770;-59
2021/12/06 06:18:51;;;;;;;12.80;10.60;;;3.00;99.90;;;;;;5011058;28;20395;-55
2021/12/06 06:21:20;;;;;;;12.97;10.63;;;3.00;99.90;;;;;;5025491;28;20419;-57
2021/12/06 06:23:47;;;;;;;14.07;11.68;;;3.10;99.90;;;;;;5008992;28;20471;-58
2021/12/06 06:26:14;;;;;;;14.50;11.93;;;3.00;99.90;;;;;;5027863;28;20479;-59
2021/12/06 06:28:40;;;;;;;12.95;10.85;;;3.00;99.90;;;;;;5040080;28;20412;-58
2021/12/06 06:31:05;;;;;;;12.50;10.63;;;3.00;99.90;;;;;;5046840;28;20482;-55
2021/12/06 06:33:32;;;;;;;14.23;10.70;;;3.00;99.90;;;;;;5067214;28;20487;-59
2021/12/06 06:35:59;;;;;;;12.77;10.55;;;3.00;99.90;;;;;;5068428;28;20402;-58
2021/12/06 06:38:26;;;;;;;12.60;10.60;;;3.10;99.90;;;;;;5067946;28;20865;-59
2021/12/06 06:40:52;;;;;;;13.00;11.38;;;3.10;99.90;;;;;;5034597;28;20426;-59
2021/12/06 06:43:18;;;;;;;13.82;11.60;;;3.00;99.90;;;;;;5034428;28;20391;-59
2021/12/06 06:45:44;;;;;;;12.77;11.10;;;3.00;99.90;;;;;;5048750;28;20401;-59
2021/12/06 06:48:09;;;;;;;12.50;10.65;;;3.10;99.90;;;;;;5048142;28;20390;-59
2021/12/06 06:50:35;;;;;;;14.77;11.53;;;3.00;99.90;;;;;;5051149;28;20391;-59
2021/12/06 06:53:01;;;;;;;12.77;11.23;;;3.10;99.90;;;;;;5035216;28;20398;-59
2021/12/06 06:55:27;;;;;;;13.03;10.50;;;3.10;99.90;;;;;;5046937;28;20460;-58
2021/12/06 06:57:53;;;;;;;12.23;10.27;;;3.10;99.90;;;;;;5044553;28;20391;-59
2021/12/06 07:00:25;;;;;;;13.07;11.60;;;3.10;99.90;;;;;;5044321;28;20407;-59
2021/12/06 07:02:51;;;;;;;13.90;11.37;;;3.10;99.90;;;;;;5029364;28;20386;-59
2021/12/06 07:05:17;;;;;;;14.32;11.30;;;3.10;99.90;;;;;;5028622;28;20502;-59
2021/12/06 07:07:43;;;;;;;14.07;11.40;;;3.10;99.90;;;;;;5044403;28;20477;-59
2021/12/06 07:10:10;;;;;;;12.53;10.17;;;3.10;99.90;;;;;;5043997;28;20383;-59
2021/12/06 07:12:43;;;;;;;11.60;10.32;;;3.10;99.90;;;;;;5043984;28;20382;-58
2021/12/06 07:15:12;;;;;;;12.63;10.68;;;3.10;99.90;;;;;;5042896;28;20717;-58
2021/12/06 07:17:38;;;;;;;12.50;10.20;;;3.10;99.90;;;;;;5041794;28;20478;-58
2021/12/06 07:20:05;;;;;;;13.77;11.05;;;3.00;99.90;;;;;;5043656;28;20414;-57
2021/12/06 07:22:30;;;;;;;12.13;10.52;;;3.00;99.90;;;;;;5042641;28;20391;-58
2021/12/06 07:24:56;;;;;;;13.00;10.80;;;3.00;99.90;;;;;;5042024;28;20456;-57
2021/12/06 07:27:22;;;;;;;13.90;10.73;;;3.00;99.90;;;;;;5043683;28;20710;-59
2021/12/06 07:29:50;;;;;;;12.25;9.93;;;3.00;99.90;;;;;;5026678;28;20526;-59
2021/12/06 07:32:15;;;;;;;15.02;11.07;;;3.10;99.90;;;;;;5059491;28;20387;-56
2021/12/06 07:34:41;;;;;;;11.95;10.10;;;3.10;99.90;;;;;;5044053;28;20684;-57
2021/12/06 07:37:06;;;;;;;10.05;9.05;;;3.00;99.90;;;;;;5042765;28;20702;-58
2021/12/06 07:39:32;;;;;;;12.37;10.47;;;3.10;99.90;;;;;;5041308;28;20397;-59
2021/12/06 07:41:58;;;;;;;11.80;10.20;;;3.10;99.90;;;;;;5040141;28;20686;-59
2021/12/06 07:44:26;;;;;;;11.63;9.55;;;3.00;99.90;;;;;;5041968;28;20383;-58
2021/12/06 07:46:52;;;;;;;12.52;10.50;;;3.10;99.90;;;;;;5027225;28;20474;-58
2021/12/06 07:49:20;;;;;;;10.20;9.10;;;3.10;99.90;;;;;;5041836;28;20391;-59
2021/12/06 07:51:46;;;;;;;13.05;10.30;;;3.10;99.90;;;;;;5039340;28;20494;-57
2021/12/06 07:54:13;;;;;;;11.07;9.85;;;3.10;99.90;;;;;;5042951;28;20712;-58
2021/12/06 07:56:41;;;;;;;11.43;9.87;;;3.10;99.90;;;;;;5027255;28;20378;-58
2021/12/06 07:59:07;;;;;;;10.45;9.38;;;3.10;99.90;;;;;;5044696;28;20391;-58
2021/12/06 08:01:33;;;;;;;12.23;10.07;;;3.10;99.90;;;;;;5043035;28;20411;-58
2021/12/06 08:04:00;;;;;;;12.65;10.30;;;3.10;99.90;;;;;;5044131;28;20464;-57
2021/12/06 08:06:27;;;;;;;10.25;9.02;;;3.10;99.90;;;;;;5043353;28;20419;-57
2021/12/06 08:08:53;;;;;;;10.77;9.65;;;3.10;99.90;;;;;;5025082;28;20383;-58
2021/12/06 08:11:21;;;;;;;10.55;9.30;;;3.10;99.90;;;;;;5028698;28;20725;-58
2021/12/06 08:13:50;;;;;;;9.90;8.90;;;3.10;99.90;;;;;;5041476;28;20386;-57
2021/12/06 08:16:22;;;;;;;11.68;9.25;;;3.10;99.90;;;;;;5042850;28;20391;-54
2021/12/06 08:18:49;;;;;;;10.60;9.50;;;3.10;99.90;;;;;;5025580;28;20809;-58
2021/12/06 08:21:18;;;;;;;12.93;10.45;;;3.10;99.90;;;;;;5040855;28;20415;-59
2021/12/06 08:23:46;;;;;;;10.57;8.98;;;3.10;99.90;;;;;;5024658;28;20391;-59
2021/12/06 08:26:13;;;;;;;10.35;9.25;;;3.10;99.90;;;;;;5040451;28;20798;-58
2021/12/06 08:28:39;;;;;;;9.77;8.77;;;3.10;99.90;;;;;;5027224;28;20399;-58
2021/12/06 08:31:06;;;;;;;10.43;9.23;;;3.20;99.90;;;;;;5048924;28;20395;-58
2021/12/06 08:33:34;;;;;;;10.98;9.55;;;3.20;99.90;;;;;;5048038;28;20457;-56
2021/12/06 08:36:04;;;;;;;10.60;9.27;;;3.20;99.90;;;;;;5029398;28;20511;-59
2021/12/06 08:38:32;;;;;;;11.52;10.32;;;3.20;99.90;;;;;;5044287;28;20394;-58
2021/12/06 08:41:01;;;;;;;11.32;9.55;;;3.20;99.90;;;;;;5042649;28;20443;-57
2021/12/06 08:43:28;;;;;;;10.82;9.50;;;3.20;99.90;;;;;;5040587;28;20437;-57
2021/12/06 08:46:15;;;;;;;11.35;9.80;;;3.20;99.90;;;;;;5041866;28;20550;-58
2021/12/06 08:48:42;;;;;;;13.57;9.83;;;3.20;99.90;;;;;;5040681;28;20379;-57
2021/12/06 08:51:19;;;;;;;10.77;9.65;;;3.20;99.90;;;;;;5027344;28;20382;-58
2021/12/06 08:53:49;;;;;;;13.02;10.32;;;3.10;99.90;;;;;;5024955;28;20410;-56
2021/12/06 08:56:17;;;;;;;11.82;9.18;;;3.10;99.90;;;;;;5041774;28;20383;-58
2021/12/06 08:58:43;;;;;;;11.30;9.90;;;3.10;99.90;;;;;;5028220;28;20659;-57
2021/12/06 09:01:09;;;;;;;11.73;9.57;;;3.20;99.90;;;;;;5027605;28;20402;-59
2021/12/06 09:03:35;;;;;;;11.43;9.70;;;3.20;99.90;;;;;;5031495;28;20745;-59
2021/12/06 09:06:06;;;;;;;12.23;9.48;;;3.20;99.90;;;;;;5045848;28;20394;-58
2021/12/06 09:08:33;;;;;;;12.43;10.07;;;3.30;99.90;;;;;;5047306;28;20664;-59
2021/12/06 09:11:00;;;;;;;10.20;9.10;;;3.30;99.90;;;;;;5045711;28;20506;-54
2021/12/06 09:13:29;;;;;;;10.35;9.25;;;3.30;99.90;;;;;;5046430;28;20391;-56
2021/12/06 09:15:59;;;;;;;11.95;9.30;;;3.30;99.90;;;;;;5032010;28;20395;-55
2021/12/06 09:18:26;;;;;;;11.23;9.50;;;3.30;99.90;;;;;;5047487;28;20391;-57
2021/12/06 09:20:54;;;;;;;10.05;8.60;;;3.30;99.90;;;;;;5046945;28;20415;-55
2021/12/06 09:23:20;;;;;;;9.90;8.57;;;3.30;99.90;;;;;;5046026;28;20410;-58
2021/12/06 09:25:48;;;;;;;12.18;9.55;;;3.40;99.90;;;;;;5029953;28;20379;-60
2021/12/06 09:28:16;;;;;;;10.63;9.27;;;3.50;99.90;;;;;;5029700;28;20394;-54
2021/12/06 09:30:44;;;;;;;9.38;8.18;;;3.50;99.90;;;;;;5042525;28;20437;-56
2021/12/06 09:33:13;;;;;;;10.63;9.30;;;3.60;99.90;;;;;;5042736;28;20387;-51
2021/12/06 09:35:41;;;;;;;10.35;8.60;;;3.60;99.90;;;;;;5044689;28;20411;-55
2021/12/06 09:38:09;;;;;;;11.07;9.52;;;3.60;99.90;;;;;;5042206;28;20619;-53
2021/12/06 09:40:38;;;;;;;12.13;10.20;;;3.60;99.90;;;;;;5042195;28;20403;-57
2021/12/06 09:43:06;;;;;;;11.40;9.63;;;3.50;99.90;;;;;;5024602;28;20828;-56
2021/12/06 09:45:33;;;;;;;11.70;9.90;;;3.50;99.90;;;;;;5041728;28;20389;-57
2021/12/06 09:48:01;;;;;;;11.13;9.48;;;3.60;99.90;;;;;;5030430;28;20379;-54
2021/12/06 09:50:33;;;;;;;10.80;9.50;;;3.60;99.90;;;;;;5045952;28;20660;-56
2021/12/06 09:53:02;;;;;;;11.30;10.10;;;3.70;99.90;;;;;;5042305;28;20379;-58
2021/12/06 09:55:29;;;;;;;10.90;9.47;;;3.70;99.90;;;;;;5044720;28;20402;-56
2021/12/06 09:57:56;;;;;;;11.60;9.77;;;3.70;99.90;;;;;;5028408;28;20426;-57
2021/12/06 10:00:42;;;;;;;12.20;10.57;;;3.70;99.90;;;;;;5061376;28;20418;-56
2021/12/06 10:03:10;;;;;;;13.52;10.77;;;3.70;99.90;;;;;;5045255;28;20465;-58
2021/12/06 10:05:36;;;;;;;14.40;11.30;;;3.70;99.90;;;;;;5029018;28;20383;-57
2021/12/06 10:08:03;;;;;;;12.38;10.52;;;3.60;99.90;;;;;;5063405;28;20391;-56
2021/12/06 10:10:31;;;;;;;13.70;11.65;;;3.60;99.90;;;;;;5048691;28;20460;-56
2021/12/06 10:12:58;;;;;;;14.35;11.77;;;3.50;99.90;;;;;;5034007;28;20865;-57
2021/12/06 10:15:29;;;;;;;15.13;11.40;;;3.40;99.90;;;;;;5047256;28;20448;-58
2021/12/06 10:17:57;;;;;;;14.25;11.02;;;3.50;99.90;;;;;;5047451;28;20398;-54
2021/12/06 10:20:25;;;;;;;15.13;11.82;;;3.60;99.90;;;;;;5046714;28;20411;-54
2021/12/06 10:22:54;;;;;;;15.55;11.93;;;3.50;99.90;;;;;;5032259;28;20803;-56
2021/12/06 10:25:21;;;;;;;15.20;12.02;;;3.60;99.90;;;;;;5031140;28;20834;-58
2021/12/06 10:27:54;;;;;;;15.25;12.43;;;3.60;99.90;;;;;;5045286;28;20383;-56
2021/12/06 10:30:25;;;;;;;15.55;12.05;;;3.60;99.90;;;;;;5046086;28;20457;-55
2021/12/06 10:33:20;;;;;;;14.43;12.82;;;3.60;99.90;;;;;;5027779;28;20695;-57
2021/12/06 10:35:52;;;;;;;15.30;12.25;;;3.70;99.90;;;;;;5028890;28;20387;-54
2021/12/06 10:38:28;;;;;;;14.73;12.38;;;3.60;99.90;;;;;;5029601;28;20481;-56
2021/12/06 10:41:01;;;;;;;15.38;11.82;;;3.60;99.90;;;;;;5046046;28;20467;-51
2021/12/06 10:43:28;;;;;;;16.40;13.20;;;3.70;99.90;;;;;;5045862;28;20390;-56
2021/12/06 10:46:08;;;;;;;15.65;13.05;;;3.80;99.90;;;;;;5030158;28;21029;-58
2021/12/06 10:48:37;;;;;;;17.42;14.23;;;3.80;99.90;;;;;;5044466;28;21182;-55
2021/12/06 10:51:12;;;;;;;15.55;13.05;;;3.70;99.90;;;;;;5044757;28;20391;-56
2021/12/06 10:53:57;;;;;;;17.27;14.85;;;3.60;99.90;;;;;;5044981;28;20380;-57
2021/12/06 10:56:32;;;;;;;17.20;13.73;;;3.50;99.90;;;;;;5043664;28;20395;-55
2021/12/06 10:59:11;;;;;;;17.55;15.07;;;3.50;99.90;;;;;;5043586;28;20861;-54
2021/12/06 11:01:41;;;;;;;17.67;14.80;;;3.50;99.90;;;;;;5046025;28;20430;-55
2021/12/06 11:04:14;;;;;;;19.58;15.25;;;3.50;99.90;;;;;;5029511;28;20379;-54
2021/12/06 11:06:44;;;;;;;19.92;16.63;;;3.30;99.90;;;;;;5045535;28;20391;-57
2021/12/06 11:09:31;;;;;;;21.20;16.90;;;3.20;99.90;;;;;;5045468;28;20383;-57
2021/12/06 11:12:05;;;;;;;22.08;17.40;;;3.20;99.90;;;;;;5029466;28;20390;-53
2021/12/06 11:14:39;;;;;;;21.42;17.63;;;3.10;99.90;;;;;;5029411;28;20815;-56
2021/12/06 11:17:13;;;;;;;22.00;17.97;;;3.10;99.90;;;;;;5048029;28;20572;-56
2021/12/06 11:19:40;;;;;;;22.80;18.27;;;3.10;99.90;;;;;;5046609;28;20973;-55
2021/12/06 11:22:11;;;;;;;22.90;18.83;;;3.00;99.90;;;;;;5046665;28;20406;-55
2021/12/06 11:24:39;;;;;;;22.67;18.52;;;3.00;99.90;;;;;;5030098;28;20541;-54
2021/12/06 11:27:14;;;;;;;23.63;18.80;;;3.00;99.90;;;;;;5029011;28;20474;-55
2021/12/06 11:30:03;;;;;;;24.65;19.48;;;3.00;99.90;;;;;;5029500;28;20873;-58
2021/12/06 11:32:40;;;;;;;22.83;18.92;;;3.00;99.90;;;;;;5045995;28;20391;-57
2021/12/06 11:35:12;;;;;;;23.60;18.33;;;3.00;99.90;;;;;;5031602;28;20415;-57
2021/12/06 11:38:04;;;;;;;23.45;18.83;;;3.10;99.90;;;;;;5049020;28;20386;-54
2021/12/06 11:40:35;;;;;;;24.08;18.38;;;3.20;99.90;;;;;;5031567;28;20459;-58
2021/12/06 11:43:13;;;;;;;31.42;19.98;;;3.30;99.90;;;;;;5047870;28;20988;-54
2021/12/06 11:45:42;;;;;;;23.23;18.83;;;3.30;99.90;;;;;;5046413;28;20395;-53
2021/12/06 11:48:22;;;;;;;23.00;19.45;;;3.40;99.90;;;;;;5062145;28;20383;-54
2021/12/06 11:51:04;;;;;;;26.65;20.50;;;3.40;99.90;;;;;;5046290;28;20915;-57
2021/12/06 11:53:33;;;;;;;24.83;20.02;;;3.40;99.90;;;;;;5043615;28;20383;-55
2021/12/06 11:56:07;;;;;;;24.90;19.70;;;3.30;99.90;;;;;;5028910;28;20447;-54
2021/12/06 11:58:43;;;;;;;28.27;20.83;;;3.40;99.90;;;;;;5045961;28;20391;-57
2021/12/06 12:01:30;;;;;;;23.60;19.58;;;3.40;99.90;;;;;;5029848;28;21082;-57
2021/12/06 12:03:59;;;;;;;26.45;21.10;;;3.40;99.90;;;;;;5032481;28;20386;-57
2021/12/06 12:06:40;;;;;;;27.38;22.33;;;3.40;99.90;;;;;;5030664;28;21109;-57
2021/12/06 12:09:16;;;;;;;25.88;21.08;;;3.40;99.90;;;;;;5049192;28;20415;-58
2021/12/06 12:12:21;;;;;;;24.93;21.17;;;3.40;99.90;;;;;;5064508;28;20393;-58
2021/12/06 12:14:55;;;;;;;27.02;22.10;;;3.20;99.90;;;;;;5038918;28;20953;-58
2021/12/06 12:17:24;;;;;;;28.88;22.90;;;3.10;99.90;;;;;;5045462;28;20402;-57
2021/12/06 12:19:53;;;;;;;26.52;21.77;;;3.10;99.90;;;;;;5029999;28;20403;-58
2021/12/06 12:22:19;;;;;;;29.25;23.25;;;3.10;99.90;;;;;;5029605;28;20387;-57
2021/12/06 12:24:50;;;;;;;29.30;23.50;;;3.10;99.90;;;;;;5045542;28;20393;-58
2021/12/06 12:29:47;;;;;;;27.70;22.40;;;3.10;99.90;;;;;;5029002;28;21028;-58
2021/12/06 12:32:15;;;;;;;30.73;24.00;;;3.00;99.90;;;;;;5044220;28;20937;-58
2021/12/06 12:34:45;;;;;;;30.52;23.83;;;2.90;99.90;;;;;;5043990;28;21010;-58
2021/12/06 12:37:12;;;;;;;30.83;23.10;;;2.90;99.90;;;;;;5046004;28;20891;-58
2021/12/06 12:39:38;;;;;;;28.73;23.38;;;2.90;99.90;;;;;;5045612;28;20387;-58
2021/12/06 12:42:08;;;;;;;29.60;22.50;;;3.00;99.90;;;;;;5043447;28;20387;-58
2021/12/06 12:44:52;;;;;;;29.92;22.90;;;3.00;99.90;;;;;;5046781;28;20403;-56
2021/12/06 12:47:22;;;;;;;30.40;23.33;;;3.00;99.90;;;;;;5030347;28;20391;-57
2021/12/06 12:50:10;;;;;;;30.27;24.05;;;3.00;99.90;;;;;;5031331;28;20414;-57
2021/12/06 12:52:35;;;;;;;31.33;23.55;;;3.00;99.90;;;;;;5047237;28;20442;-57
2021/12/06 12:55:02;;;;;;;31.67;24.35;;;3.10;99.90;;;;;;5032018;28;20415;-57
2021/12/06 12:57:37;;;;;;;29.65;23.55;;;2.90;99.90;;;;;;5031383;28;20410;-56
2021/12/06 13:00:15;;;;;;;32.47;24.52;;;3.00;99.90;;;;;;5050502;28;20423;-57
2021/12/06 13:02:41;;;;;;;32.38;26.05;;;3.00;99.90;;;;;;5066407;28;20379;-59
2021/12/06 13:05:12;;;;;;;37.63;26.25;;;2.90;99.90;;;;;;5049348;28;20735;-56
2021/12/06 13:07:38;;;;;;;37.77;27.03;;;2.80;99.90;;;;;;5033449;28;20371;-57